createdAt,value
2022-12-05T00:00:20.098Z,4.67
2022-12-05T00:01:31.806Z,4.27
2022-12-05T00:02:28.474Z,4.38
2022-12-05T00:03:25.094Z,4.09
2022-12-05T00:04:22.063Z,4.15
2022-12-05T00:05:18.745Z,4.05
2022-12-05T00:06:15.972Z,3.95
2022-12-05T00:07:12.670Z,4.22
2022-12-05T00:08:09.384Z,4.20
2022-12-05T00:09:07.999Z,4.20
2022-12-05T00:10:06.366Z,3.94
2022-12-05T00:11:02.934Z,3.96
2022-12-05T00:11:59.566Z,4.10
2022-12-05T00:12:56.189Z,4.07
2022-12-05T00:13:54.807Z,4.15
2022-12-05T00:14:51.570Z,4.21
2022-12-05T00:15:48.180Z,4.02
2022-12-05T00:16:44.887Z,4.09
2022-12-05T00:17:41.733Z,3.98
2022-12-05T00:18:38.478Z,4.16
2022-12-05T00:19:35.098Z,4.15
2022-12-05T00:20:31.783Z,4.32
2022-12-05T00:21:30.936Z,4.42
2022-12-05T00:22:27.554Z,4.17
2022-12-05T00:23:24.107Z,3.85
2022-12-05T00:24:20.896Z,4.10
2022-12-05T00:25:17.710Z,4.32
2022-12-05T00:26:14.577Z,4.30
2022-12-05T00:27:11.235Z,4.13
2022-12-05T00:28:07.914Z,4.27
2022-12-05T00:29:04.803Z,4.26
2022-12-05T00:30:01.499Z,4.26
2022-12-05T00:30:58.123Z,4.32
2022-12-05T00:31:54.747Z,4.25
2022-12-05T00:32:51.375Z,4.31
2022-12-05T00:33:49.323Z,4.37
2022-12-05T00:34:45.987Z,4.13
2022-12-05T00:35:42.546Z,4.24
2022-12-05T00:36:39.467Z,4.15
2022-12-05T00:37:36.458Z,4.02
2022-12-05T00:38:33.121Z,3.98
2022-12-05T00:39:29.726Z,3.98
2022-12-05T00:40:26.323Z,3.96
2022-12-05T00:41:25.368Z,4.10
2022-12-05T00:42:21.950Z,4.11
2022-12-05T00:43:18.520Z,4.00
2022-12-05T00:44:15.088Z,4.16
2022-12-05T00:45:11.762Z,3.95
2022-12-05T00:46:11.296Z,4.16
2022-12-05T00:47:08.106Z,3.93
2022-12-05T00:48:05.039Z,4.58
2022-12-05T00:49:03.806Z,4.77
2022-12-05T00:50:00.549Z,4.24
2022-12-05T00:51:15.501Z,4.22
2022-12-05T00:52:12.082Z,4.30
2022-12-05T00:53:08.678Z,4.45
2022-12-05T00:54:08.682Z,4.19
2022-12-05T00:55:05.712Z,4.08
2022-12-05T00:56:04.026Z,4.13
2022-12-05T00:57:00.610Z,4.21
2022-12-05T00:57:57.158Z,4.16
2022-12-05T00:58:55.148Z,4.43
2022-12-05T00:59:51.749Z,4.43
2022-12-05T01:00:48.327Z,4.12
2022-12-05T01:01:46.540Z,3.80
2022-12-05T01:02:43.230Z,4.10
2022-12-05T01:03:40.492Z,4.11
2022-12-05T01:04:37.181Z,4.00
2022-12-05T01:05:34.492Z,3.76
2022-12-05T01:06:31.211Z,3.88
2022-12-05T01:07:27.858Z,3.89
2022-12-05T01:08:25.069Z,3.94
2022-12-05T01:09:22.132Z,3.94
2022-12-05T01:10:18.732Z,3.77
2022-12-05T01:11:17.915Z,3.96
2022-12-05T01:12:14.566Z,3.94
2022-12-05T01:13:11.136Z,4.03
2022-12-05T01:14:07.999Z,4.33
2022-12-05T01:15:04.954Z,4.12
2022-12-05T01:16:02.510Z,4.04
2022-12-05T01:16:59.248Z,4.23
2022-12-05T01:17:55.887Z,4.46
2022-12-05T01:18:52.914Z,4.41
2022-12-05T01:19:49.530Z,4.14
2022-12-05T01:20:46.903Z,4.30
2022-12-05T01:21:44.008Z,4.40
2022-12-05T01:22:40.650Z,4.42
2022-12-05T01:23:37.752Z,4.15
2022-12-05T01:24:34.348Z,4.31
2022-12-05T01:25:30.926Z,3.99
2022-12-05T01:26:27.732Z,4.11
2022-12-05T01:27:24.398Z,4.16
2022-12-05T01:28:21.108Z,4.37
2022-12-05T01:29:21.347Z,4.44
2022-12-05T01:30:18.108Z,4.09
2022-12-05T01:31:29.745Z,4.09
2022-12-05T01:32:26.350Z,4.03
2022-12-05T01:33:22.947Z,4.11
2022-12-05T01:34:19.893Z,4.16
2022-12-05T01:35:16.689Z,4.04
2022-12-05T01:36:13.409Z,4.12
2022-12-05T01:37:10.052Z,4.24
2022-12-05T01:38:07.616Z,4.03
2022-12-05T01:39:04.246Z,4.26
2022-12-05T01:40:00.860Z,4.12
2022-12-05T01:41:02.374Z,3.98
2022-12-05T01:41:59.719Z,4.23
2022-12-05T01:42:56.496Z,4.48
2022-12-05T01:43:58.138Z,4.15
2022-12-05T01:44:54.654Z,3.94
2022-12-05T01:45:51.516Z,3.99
2022-12-05T01:46:50.657Z,3.97
2022-12-05T01:47:47.450Z,4.13
2022-12-05T01:48:44.582Z,3.88
2022-12-05T01:49:42.872Z,3.92
2022-12-05T01:50:39.541Z,3.97
2022-12-05T01:51:39.314Z,3.97
2022-12-05T01:52:36.375Z,4.45
2022-12-05T01:53:34.045Z,3.83
2022-12-05T01:54:30.798Z,4.04
2022-12-05T01:55:27.797Z,4.08
2022-12-05T01:56:24.628Z,3.42
2022-12-05T01:57:22.798Z,3.86
2022-12-05T01:58:19.920Z,4.15
2022-12-05T01:59:18.698Z,4.20
2022-12-05T02:00:18.676Z,3.62
2022-12-05T02:01:17.785Z,4.30
2022-12-05T02:02:14.809Z,4.22
2022-12-05T02:03:17.363Z,4.17
2022-12-05T02:04:14.039Z,4.13
2022-12-05T02:05:18.959Z,4.00
2022-12-05T02:06:16.313Z,4.24
2022-12-05T02:07:13.035Z,4.14
2022-12-05T02:08:11.254Z,4.16
2022-12-05T02:09:07.906Z,3.98
2022-12-05T02:10:07.005Z,3.96
2022-12-05T02:11:07.311Z,4.07
2022-12-05T02:12:04.819Z,4.11
2022-12-05T02:13:15.057Z,4.10
2022-12-05T02:14:41.129Z,3.99
2022-12-05T02:15:45.677Z,4.33
2022-12-05T02:16:53.995Z,4.35
2022-12-05T02:18:05.835Z,4.35
2022-12-05T02:19:20.175Z,3.81
2022-12-05T02:20:19.539Z,4.03
2022-12-05T02:21:16.134Z,3.92
2022-12-05T02:22:42.986Z,3.97
2022-12-05T02:23:51.440Z,4.24
2022-12-05T02:25:19.841Z,4.43
2022-12-05T02:26:38.002Z,4.16
2022-12-05T02:27:43.567Z,4.24
2022-12-05T02:29:04.771Z,4.50
2022-12-05T02:30:05.812Z,4.16
2022-12-05T02:31:28.823Z,4.20
2022-12-05T02:33:01.343Z,4.25
2022-12-05T02:34:16.648Z,4.04
2022-12-05T02:35:28.109Z,3.74
2022-12-05T02:36:56.311Z,4.08
2022-12-05T02:38:25.141Z,4.29
2022-12-05T02:39:45.648Z,4.02
2022-12-05T02:40:57.331Z,3.97
2022-12-05T02:42:07.101Z,3.86
2022-12-05T02:43:25.201Z,3.98
2022-12-05T02:44:30.429Z,3.98
2022-12-05T02:45:31.291Z,4.03
2022-12-05T02:46:30.975Z,3.90
2022-12-05T02:47:33.058Z,3.85
2022-12-05T02:48:29.892Z,4.11
2022-12-05T02:49:31.745Z,4.13
2022-12-05T02:50:35.577Z,4.08
2022-12-05T02:51:36.706Z,3.86
2022-12-05T02:52:34.778Z,3.82
2022-12-05T02:53:32.197Z,3.75
2022-12-05T02:54:33.942Z,3.90
2022-12-05T02:55:32.398Z,4.06
2022-12-05T02:56:32.190Z,4.27
2022-12-05T02:57:29.522Z,4.39
2022-12-05T02:58:33.815Z,4.34
2022-12-05T02:59:30.454Z,4.37
2022-12-05T03:00:27.142Z,4.39
2022-12-05T03:01:27.638Z,4.45
2022-12-05T03:02:32.547Z,4.25
2022-12-05T03:03:30.583Z,4.16
2022-12-05T03:04:29.117Z,3.86
2022-12-05T03:05:32.972Z,4.36
2022-12-05T03:06:42.628Z,4.52
2022-12-05T03:07:41.077Z,4.05
2022-12-05T03:08:59.099Z,4.17
2022-12-05T03:10:01.649Z,4.52
2022-12-05T03:11:00.126Z,4.32
2022-12-05T03:12:10.163Z,4.28
2022-12-05T03:13:14.020Z,4.26
2022-12-05T03:14:21.707Z,4.22
2022-12-05T03:15:24.803Z,4.11
2022-12-05T03:16:28.719Z,4.22
2022-12-05T03:17:47.099Z,4.39
2022-12-05T03:18:56.713Z,4.20
2022-12-05T03:19:53.438Z,4.07
2022-12-05T03:21:13.112Z,3.91
2022-12-05T03:22:19.074Z,4.29
2022-12-05T03:23:21.022Z,4.27
2022-12-05T03:24:17.747Z,4.34
2022-12-05T03:25:15.017Z,4.33
2022-12-05T03:26:42.731Z,4.41
2022-12-05T03:27:53.866Z,4.22
2022-12-05T03:28:57.066Z,3.94
2022-12-05T03:30:02.147Z,3.88
2022-12-05T03:31:06.524Z,3.62
2022-12-05T03:32:47.854Z,3.82
2022-12-05T03:33:49.552Z,3.66
2022-12-05T03:34:57.471Z,3.91
2022-12-05T03:36:11.847Z,3.85
2022-12-05T03:37:18.932Z,3.87
2022-12-05T03:38:29.959Z,3.86
2022-12-05T03:39:32.613Z,4.07
2022-12-05T03:40:32.050Z,4.16
2022-12-05T03:41:43.008Z,4.06
2022-12-05T03:42:43.552Z,4.07
2022-12-05T03:43:50.394Z,4.25
2022-12-05T03:44:54.879Z,3.94
2022-12-05T03:46:03.678Z,4.15
2022-12-05T03:47:12.879Z,4.17
2022-12-05T03:48:24.623Z,3.77
2022-12-05T03:49:33.714Z,3.96
2022-12-05T03:50:31.077Z,4.02
2022-12-05T03:51:34.392Z,3.94
2022-12-05T03:52:57.146Z,3.98
2022-12-05T03:54:02.365Z,3.91
2022-12-05T03:55:04.443Z,4.02
2022-12-05T03:56:13.484Z,3.99
2022-12-05T03:57:22.185Z,3.97
2022-12-05T03:58:26.718Z,4.00
2022-12-05T03:59:52.793Z,3.96
2022-12-05T04:00:54.196Z,3.91
2022-12-05T04:01:53.111Z,4.00
2022-12-05T04:02:54.821Z,4.05
2022-12-05T04:03:58.450Z,3.99
2022-12-05T04:05:01.206Z,4.04
2022-12-05T04:06:01.543Z,4.39
2022-12-05T04:07:00.185Z,4.47
2022-12-05T04:08:03.795Z,4.50
2022-12-05T04:09:17.496Z,4.67
2022-12-05T04:10:19.668Z,4.30
2022-12-05T04:11:20.985Z,4.30
2022-12-05T04:12:23.742Z,4.17
2022-12-05T04:13:23.822Z,4.08
2022-12-05T04:14:28.386Z,3.57
2022-12-05T04:15:51.561Z,4.05
2022-12-05T04:17:15.437Z,4.20
2022-12-05T04:18:12.685Z,4.21
2022-12-05T04:19:24.317Z,4.15
2022-12-05T04:20:45.152Z,4.28
2022-12-05T04:21:46.889Z,4.30
2022-12-05T04:22:44.592Z,4.10
2022-12-05T04:23:46.294Z,4.28
2022-12-05T04:25:03.424Z,4.30
2022-12-05T04:26:08.744Z,4.30
2022-12-05T04:27:27.383Z,4.26
2022-12-05T04:28:29.374Z,4.24
2022-12-05T04:29:32.320Z,4.53
2022-12-05T04:30:40.733Z,4.30
2022-12-05T04:31:43.459Z,4.23
2022-12-05T04:33:04.423Z,4.34
2022-12-05T04:34:06.729Z,4.67
2022-12-05T04:35:09.596Z,4.10
2022-12-05T04:36:13.951Z,4.20
2022-12-05T04:37:16.335Z,3.48
2022-12-05T04:38:25.554Z,4.09
2022-12-05T04:39:54.495Z,4.07
2022-12-05T04:41:05.127Z,4.27
2022-12-05T04:42:07.131Z,4.37
2022-12-05T04:43:06.331Z,4.28
2022-12-05T04:44:07.908Z,4.29
2022-12-05T04:45:10.442Z,4.27
2022-12-05T04:46:09.081Z,4.25
2022-12-05T04:47:09.708Z,3.90
2022-12-05T04:48:12.135Z,4.33
2022-12-05T04:49:10.184Z,4.14
2022-12-05T04:50:09.666Z,3.93
2022-12-05T04:51:09.819Z,4.16
2022-12-05T04:52:10.108Z,4.31
2022-12-05T04:53:09.114Z,4.35
2022-12-05T04:54:17.436Z,4.64
2022-12-05T04:55:20.232Z,4.46
2022-12-05T04:56:20.727Z,4.38
2022-12-05T04:57:31.380Z,4.63
2022-12-05T04:58:29.923Z,4.62
2022-12-05T04:59:26.594Z,3.87
2022-12-05T05:00:23.397Z,4.00
2022-12-05T05:01:28.253Z,4.17
2022-12-05T05:02:31.641Z,4.27
2022-12-05T05:03:44.096Z,4.33
2022-12-05T05:04:47.895Z,4.23
2022-12-05T05:05:48.689Z,4.21
2022-12-05T05:06:45.343Z,4.18
2022-12-05T05:07:51.840Z,4.34
2022-12-05T05:08:51.687Z,4.16
2022-12-05T05:09:48.337Z,4.20
2022-12-05T05:10:52.579Z,4.24
2022-12-05T05:11:49.298Z,4.21
2022-12-05T05:12:46.118Z,4.43
2022-12-05T05:13:42.712Z,4.14
2022-12-05T05:14:39.342Z,4.25
2022-12-05T05:15:35.963Z,4.14
2022-12-05T05:16:36.678Z,4.40
2022-12-05T05:17:33.387Z,4.20
2022-12-05T05:18:30.117Z,4.11
2022-12-05T05:19:26.784Z,4.28
2022-12-05T05:20:27.447Z,4.17
2022-12-05T05:21:34.616Z,4.22
2022-12-05T05:22:31.154Z,4.19
2022-12-05T05:23:27.776Z,4.13
2022-12-05T05:24:26.351Z,4.28
2022-12-05T05:25:24.316Z,4.40
2022-12-05T05:26:21.806Z,4.40
2022-12-05T05:27:18.461Z,4.07
2022-12-05T05:28:15.082Z,3.73
2022-12-05T05:29:13.388Z,4.18
2022-12-05T05:30:10.282Z,4.12
2022-12-05T05:31:07.717Z,4.54
2022-12-05T05:32:04.330Z,4.33
2022-12-05T05:33:01.348Z,4.20
2022-12-05T05:33:58.334Z,4.25
2022-12-05T05:34:54.892Z,4.04
2022-12-05T05:35:51.419Z,3.77
2022-12-05T05:36:52.140Z,3.94
2022-12-05T05:37:48.744Z,4.25
2022-12-05T05:38:48.500Z,4.15
2022-12-05T05:39:45.099Z,4.39
2022-12-05T05:40:41.826Z,4.23
2022-12-05T05:41:38.385Z,4.39
2022-12-05T05:42:35.148Z,4.28
2022-12-05T05:43:31.982Z,3.87
2022-12-05T05:44:28.595Z,4.14
2022-12-05T05:45:25.210Z,4.02
2022-12-05T05:46:25.083Z,4.41
2022-12-05T05:47:21.749Z,4.47
2022-12-05T05:48:18.500Z,4.14
2022-12-05T05:49:15.115Z,4.38
2022-12-05T05:50:16.286Z,4.09
2022-12-05T05:51:17.261Z,4.14
2022-12-05T05:52:13.947Z,4.02
2022-12-05T05:53:10.560Z,4.05
2022-12-05T05:54:07.237Z,4.02
2022-12-05T05:55:05.622Z,3.94
2022-12-05T05:56:04.804Z,4.08
2022-12-05T05:57:01.422Z,4.06
2022-12-05T05:57:58.112Z,4.10
2022-12-05T05:59:03.394Z,4.03
2022-12-05T06:00:00.191Z,3.93
2022-12-05T06:01:07.663Z,3.74
2022-12-05T06:02:04.280Z,3.84
2022-12-05T06:03:00.995Z,4.12
2022-12-05T06:03:58.792Z,4.07
2022-12-05T06:04:55.552Z,4.38
2022-12-05T06:05:59.156Z,4.42
2022-12-05T06:06:55.687Z,4.20
2022-12-05T06:07:55.397Z,4.30
2022-12-05T06:08:52.064Z,4.16
2022-12-05T06:09:48.655Z,4.18
2022-12-05T06:10:45.221Z,4.10
2022-12-05T06:11:41.855Z,4.23
2022-12-05T06:12:38.579Z,4.18
2022-12-05T06:13:35.397Z,4.03
2022-12-05T06:14:32.171Z,4.03
2022-12-05T06:15:28.729Z,4.11
2022-12-05T06:16:25.695Z,4.07
2022-12-05T06:17:22.350Z,4.14
2022-12-05T06:18:18.902Z,4.23
2022-12-05T06:19:15.494Z,4.17
2022-12-05T06:20:12.338Z,4.01
2022-12-05T06:21:15.973Z,4.20
2022-12-05T06:22:13.052Z,4.24
2022-12-05T06:23:09.720Z,4.30
2022-12-05T06:24:06.797Z,4.15
2022-12-05T06:25:03.820Z,4.25
2022-12-05T06:26:00.440Z,4.48
2022-12-05T06:26:57.114Z,4.44
2022-12-05T06:27:53.727Z,4.05
2022-12-05T06:28:50.507Z,4.24
2022-12-05T06:29:47.084Z,4.16
2022-12-05T06:30:43.764Z,4.11
2022-12-05T06:31:41.975Z,3.94
2022-12-05T06:32:38.646Z,4.14
2022-12-05T06:33:35.371Z,4.09
2022-12-05T06:34:32.779Z,4.48
2022-12-05T06:35:29.404Z,4.14
2022-12-05T06:36:26.794Z,4.75
2022-12-05T06:37:23.458Z,4.69
2022-12-05T06:38:20.055Z,4.81
2022-12-05T06:39:16.667Z,4.48
2022-12-05T06:40:14.035Z,4.53
2022-12-05T06:41:18.100Z,4.47
2022-12-05T06:42:14.688Z,4.56
2022-12-05T06:43:11.693Z,4.65
2022-12-05T06:44:09.821Z,4.80
2022-12-05T06:45:07.023Z,4.75
2022-12-05T06:46:08.383Z,4.74
2022-12-05T06:47:05.212Z,4.70
2022-12-05T06:48:01.813Z,4.81
2022-12-05T06:48:59.448Z,4.77
2022-12-05T06:49:56.275Z,4.84
2022-12-05T06:50:53.862Z,4.85
2022-12-05T06:51:50.432Z,5.06
2022-12-05T06:52:47.062Z,4.64
2022-12-05T06:53:44.109Z,4.28
2022-12-05T06:54:40.743Z,4.51
2022-12-05T06:55:37.454Z,3.96
2022-12-05T06:56:34.048Z,4.28
2022-12-05T06:57:31.152Z,4.43
2022-12-05T06:58:28.528Z,4.37
2022-12-05T06:59:25.104Z,4.68
2022-12-05T07:00:40.285Z,4.36
2022-12-05T07:01:41.483Z,4.40
2022-12-05T07:02:38.450Z,4.45
2022-12-05T07:03:35.354Z,4.43
2022-12-05T07:04:31.931Z,4.52
2022-12-05T07:05:28.554Z,4.50
2022-12-05T07:06:25.359Z,4.16
2022-12-05T07:07:22.071Z,4.73
2022-12-05T07:08:18.726Z,4.92
2022-12-05T07:09:16.818Z,5.01
2022-12-05T07:10:13.418Z,4.59
2022-12-05T07:11:10.043Z,4.57
2022-12-05T07:12:06.801Z,4.74
2022-12-05T07:13:03.476Z,4.84
2022-12-05T07:14:00.432Z,4.71
2022-12-05T07:14:57.011Z,4.78
2022-12-05T07:15:53.691Z,4.89
2022-12-05T07:16:51.615Z,4.84
2022-12-05T07:17:48.256Z,4.93
2022-12-05T07:18:44.864Z,4.90
2022-12-05T07:19:41.467Z,4.72
2022-12-05T07:21:03.884Z,4.72
2022-12-05T07:21:54.682Z,4.76
2022-12-05T07:22:51.264Z,4.76
2022-12-05T07:23:50.110Z,4.92
2022-12-05T07:24:47.263Z,5.15
2022-12-05T07:25:43.972Z,5.18
2022-12-05T07:26:40.554Z,5.30
2022-12-05T07:27:37.111Z,5.08
2022-12-05T07:28:33.812Z,5.10
2022-12-05T07:29:30.617Z,5.15
2022-12-05T07:30:27.226Z,5.33
2022-12-05T07:31:26.021Z,5.23
2022-12-05T07:32:22.744Z,5.39
2022-12-05T07:33:19.405Z,5.07
2022-12-05T07:34:15.979Z,5.34
2022-12-05T07:35:12.592Z,5.52
2022-12-05T07:36:15.105Z,5.26
2022-12-05T07:37:13.053Z,5.24
2022-12-05T07:38:09.690Z,5.20
2022-12-05T07:39:06.335Z,4.85
2022-12-05T07:40:02.963Z,5.10
2022-12-05T07:40:59.690Z,5.26
2022-12-05T07:41:56.338Z,5.33
2022-12-05T07:42:55.796Z,5.48
2022-12-05T07:43:53.930Z,5.21
2022-12-05T07:44:50.525Z,5.01
2022-12-05T07:45:47.254Z,5.17
2022-12-05T07:46:44.077Z,5.31
2022-12-05T07:47:40.672Z,5.19
2022-12-05T07:48:37.478Z,5.23
2022-12-05T07:49:34.193Z,5.22
2022-12-05T07:50:30.800Z,4.85
2022-12-05T07:51:27.480Z,5.28
2022-12-05T07:52:24.238Z,5.43
2022-12-05T07:53:20.840Z,5.52
2022-12-05T07:54:17.531Z,5.48
2022-12-05T07:55:14.167Z,5.43
2022-12-05T07:56:17.289Z,5.41
2022-12-05T07:57:13.915Z,5.01
2022-12-05T07:58:10.498Z,4.98
2022-12-05T07:59:07.039Z,5.10
2022-12-05T08:00:04.588Z,4.87
2022-12-05T08:01:12.964Z,5.41
2022-12-05T08:02:09.697Z,5.40
2022-12-05T08:03:06.353Z,5.31
2022-12-05T08:04:03.095Z,5.09
2022-12-05T08:04:59.772Z,4.99
2022-12-05T08:05:56.370Z,4.77
2022-12-05T08:06:53.087Z,4.82
2022-12-05T08:07:49.812Z,4.93
2022-12-05T08:08:51.197Z,4.81
2022-12-05T08:09:47.888Z,5.00
2022-12-05T08:10:44.485Z,4.97
2022-12-05T08:11:41.265Z,5.25
2022-12-05T08:12:38.409Z,5.23
2022-12-05T08:13:35.203Z,5.35
2022-12-05T08:14:32.057Z,4.99
2022-12-05T08:15:28.787Z,5.15
2022-12-05T08:16:28.933Z,5.00
2022-12-05T08:17:26.702Z,5.15
2022-12-05T08:18:27.322Z,4.90
2022-12-05T08:19:24.261Z,5.06
2022-12-05T08:20:20.929Z,5.31
2022-12-05T08:21:19.663Z,5.11
2022-12-05T08:22:16.226Z,5.07
2022-12-05T08:23:12.849Z,5.39
2022-12-05T08:24:09.591Z,5.16
2022-12-05T08:25:06.747Z,5.18
2022-12-05T08:26:27.017Z,5.06
2022-12-05T08:27:23.676Z,5.37
2022-12-05T08:28:20.470Z,5.41
2022-12-05T08:29:21.307Z,5.21
2022-12-05T08:30:18.305Z,5.28
2022-12-05T08:31:17.625Z,5.14
2022-12-05T08:32:14.340Z,5.29
2022-12-05T08:33:10.981Z,5.36
2022-12-05T08:34:08.231Z,5.41
2022-12-05T08:35:05.262Z,5.27
2022-12-05T08:36:03.689Z,5.25
2022-12-05T08:37:00.301Z,5.20
2022-12-05T08:37:56.874Z,5.37
2022-12-05T08:38:58.642Z,4.63
2022-12-05T08:39:55.401Z,5.31
2022-12-05T08:40:52.039Z,5.17
2022-12-05T08:41:49.721Z,5.39
2022-12-05T08:42:46.357Z,5.50
2022-12-05T08:43:44.425Z,5.63
2022-12-05T08:44:41.050Z,5.76
2022-12-05T08:45:37.737Z,5.11
2022-12-05T08:46:38.091Z,5.36
2022-12-05T08:47:37.447Z,5.62
2022-12-05T08:48:35.639Z,5.58
2022-12-05T08:49:32.433Z,5.88
2022-12-05T08:50:29.013Z,5.70
2022-12-05T08:51:25.650Z,6.00
2022-12-05T08:52:22.936Z,6.03
2022-12-05T08:53:19.532Z,5.94
2022-12-05T08:54:16.677Z,5.94
2022-12-05T08:55:13.329Z,5.76
2022-12-05T08:56:10.942Z,5.79
2022-12-05T08:57:07.538Z,5.98
2022-12-05T08:58:04.426Z,5.70
2022-12-05T08:59:05.976Z,5.79
2022-12-05T09:00:06.071Z,5.46
2022-12-05T09:01:18.119Z,5.54
2022-12-05T09:02:14.996Z,5.61
2022-12-05T09:03:12.446Z,5.57
2022-12-05T09:04:09.618Z,5.30
2022-12-05T09:05:26.510Z,5.52
2022-12-05T09:06:25.259Z,5.49
2022-12-05T09:07:21.896Z,5.46
2022-12-05T09:08:18.564Z,5.46
2022-12-05T09:09:16.382Z,5.48
2022-12-05T09:10:13.182Z,5.66
2022-12-05T09:11:21.439Z,5.70
2022-12-05T09:12:18.094Z,6.12
2022-12-05T09:13:14.940Z,6.17
2022-12-05T09:14:12.192Z,5.93
2022-12-05T09:15:10.687Z,5.81
2022-12-05T09:16:12.326Z,5.72
2022-12-05T09:17:09.051Z,5.57
2022-12-05T09:18:05.643Z,5.88
2022-12-05T09:19:02.238Z,5.69
2022-12-05T09:19:58.863Z,5.93
2022-12-05T09:20:56.671Z,5.93
2022-12-05T09:21:54.111Z,6.07
2022-12-05T09:22:52.410Z,5.78
2022-12-05T09:23:49.205Z,5.88
2022-12-05T09:24:45.870Z,6.14
2022-12-05T09:25:42.535Z,6.42
2022-12-05T09:26:39.974Z,6.24
2022-12-05T09:27:37.061Z,6.03
2022-12-05T09:28:35.260Z,6.33
2022-12-05T09:29:31.824Z,6.45
2022-12-05T09:30:29.033Z,5.89
2022-12-05T09:31:27.464Z,6.23
2022-12-05T09:32:24.447Z,6.40
2022-12-05T09:33:21.053Z,5.99
2022-12-05T09:34:18.670Z,5.62
2022-12-05T09:35:15.717Z,6.01
2022-12-05T09:36:16.320Z,6.16
2022-12-05T09:37:37.423Z,5.86
2022-12-05T09:38:29.538Z,6.04
2022-12-05T09:39:26.114Z,6.04
2022-12-05T09:40:22.825Z,6.12
2022-12-05T09:42:10.252Z,6.30
2022-12-05T09:43:09.110Z,6.51
2022-12-05T09:44:14.400Z,6.09
2022-12-05T09:45:15.278Z,6.07
2022-12-05T09:46:29.280Z,5.92
2022-12-05T09:47:28.118Z,6.40
2022-12-05T09:48:25.043Z,6.64
2022-12-05T09:49:23.947Z,6.63
2022-12-05T09:50:25.240Z,6.25
2022-12-05T09:51:22.274Z,6.27
2022-12-05T09:52:27.645Z,6.42
2022-12-05T09:53:30.707Z,6.27
2022-12-05T09:54:28.166Z,6.42
2022-12-05T09:55:25.708Z,6.22
2022-12-05T09:56:30.794Z,6.30
2022-12-05T09:57:35.170Z,6.15
2022-12-05T09:58:40.595Z,6.46
2022-12-05T09:59:37.204Z,6.18
2022-12-05T10:00:34.346Z,6.34
2022-12-05T10:01:43.069Z,6.07
2022-12-05T10:02:45.772Z,6.29
2022-12-05T10:04:05.134Z,6.10
2022-12-05T10:05:17.793Z,6.15
2022-12-05T10:06:28.710Z,5.99
2022-12-05T10:07:34.466Z,6.07
2022-12-05T10:08:58.538Z,6.19
2022-12-05T10:10:38.511Z,6.42
2022-12-05T10:11:44.504Z,6.28
2022-12-05T10:12:56.749Z,6.10
2022-12-05T10:14:06.516Z,6.38
2022-12-05T10:15:16.884Z,6.10
2022-12-05T10:16:26.780Z,6.41
2022-12-05T10:17:34.457Z,6.14
2022-12-05T10:18:48.519Z,6.15
2022-12-05T10:19:49.838Z,6.19
2022-12-05T10:20:48.812Z,6.45
2022-12-05T10:22:10.295Z,5.95
2022-12-05T10:23:41.276Z,6.33
2022-12-05T10:24:40.955Z,6.29
2022-12-05T10:25:39.809Z,5.97
2022-12-05T10:26:58.916Z,6.20
2022-12-05T10:27:59.997Z,6.37
2022-12-05T10:29:03.594Z,6.52
2022-12-05T10:30:04.733Z,6.91
2022-12-05T10:31:07.744Z,6.42
2022-12-05T10:32:18.392Z,6.56
2022-12-05T10:33:21.260Z,6.55
2022-12-05T10:34:39.137Z,6.35
2022-12-05T10:35:40.634Z,5.97
2022-12-05T10:36:37.211Z,5.93
2022-12-05T10:37:33.956Z,6.37
2022-12-05T10:38:31.400Z,6.79
2022-12-05T10:39:28.332Z,6.20
2022-12-05T10:40:30.728Z,6.56
2022-12-05T10:41:28.753Z,6.65
2022-12-05T10:42:35.515Z,6.86
2022-12-05T10:43:34.536Z,6.58
2022-12-05T10:44:33.169Z,6.63
2022-12-05T10:45:29.870Z,6.61
2022-12-05T10:46:26.773Z,6.63
2022-12-05T10:47:23.470Z,6.25
2022-12-05T10:48:21.442Z,6.28
2022-12-05T10:49:19.341Z,6.01
2022-12-05T10:50:28.071Z,6.40
2022-12-05T10:51:31.304Z,6.00
2022-12-05T10:52:32.749Z,6.12
2022-12-05T10:53:39.229Z,6.00
2022-12-05T10:54:47.359Z,6.37
2022-12-05T10:56:28.062Z,6.32
2022-12-05T10:57:20.803Z,6.18
2022-12-05T10:58:25.610Z,6.07
2022-12-05T10:59:25.211Z,5.94
2022-12-05T11:00:30.240Z,5.77
2022-12-05T11:01:28.476Z,6.20
2022-12-05T11:02:31.415Z,6.11
2022-12-05T11:03:31.647Z,6.39
2022-12-05T11:04:43.472Z,6.25
2022-12-05T11:05:41.164Z,5.93
2022-12-05T11:06:37.934Z,5.99
2022-12-05T11:07:43.021Z,6.12
2022-12-05T11:09:03.582Z,6.30
2022-12-05T11:09:59.194Z,6.21
2022-12-05T11:11:29.068Z,6.56
2022-12-05T11:12:36.703Z,6.45
2022-12-05T11:13:34.951Z,6.23
2022-12-05T11:14:34.423Z,6.09
2022-12-05T11:15:31.862Z,5.88
2022-12-05T11:16:33.524Z,6.23
2022-12-05T11:17:36.346Z,6.20
2022-12-05T11:18:34.676Z,6.40
2022-12-05T11:19:36.442Z,6.50
2022-12-05T11:20:37.685Z,6.74
2022-12-05T11:21:42.975Z,6.69
2022-12-05T11:22:42.172Z,6.43
2022-12-05T11:23:41.802Z,6.11
2022-12-05T11:24:39.295Z,6.13
2022-12-05T11:25:36.628Z,6.40
2022-12-05T11:26:37.724Z,6.68
2022-12-05T11:27:34.325Z,6.68
2022-12-05T11:28:34.838Z,6.74
2022-12-05T11:29:37.203Z,6.77
2022-12-05T11:30:33.800Z,6.72
2022-12-05T11:31:32.030Z,6.27
2022-12-05T11:32:33.878Z,6.48
2022-12-05T11:33:33.267Z,6.41
2022-12-05T11:34:37.833Z,6.32
2022-12-05T11:35:34.528Z,6.17
2022-12-05T11:36:46.665Z,6.38
2022-12-05T11:37:49.054Z,6.44
2022-12-05T11:38:45.886Z,5.68
2022-12-05T11:39:42.515Z,6.51
2022-12-05T11:40:41.886Z,6.11
2022-12-05T11:41:59.936Z,6.38
2022-12-05T11:43:24.323Z,6.47
2022-12-05T11:44:39.137Z,6.38
2022-12-05T11:45:44.666Z,6.29
2022-12-05T11:47:11.793Z,6.05
2022-12-05T11:48:39.509Z,6.23
2022-12-05T11:49:53.618Z,6.03
2022-12-05T11:50:58.883Z,6.15
2022-12-05T11:52:29.304Z,6.49
2022-12-05T11:53:47.597Z,6.40
2022-12-05T11:55:04.948Z,6.30
2022-12-05T11:56:36.051Z,6.32
2022-12-05T11:58:01.983Z,6.15
2022-12-05T11:59:01.239Z,6.46
2022-12-05T12:00:03.530Z,6.22
2022-12-05T12:01:18.433Z,6.07
2022-12-05T12:02:48.863Z,6.24
2022-12-05T12:04:12.553Z,6.29
2022-12-05T12:05:24.617Z,6.22
2022-12-05T12:06:21.368Z,6.08
2022-12-05T12:07:26.748Z,5.88
2022-12-05T12:08:29.821Z,5.77
2022-12-05T12:09:45.271Z,6.39
2022-12-05T12:11:24.234Z,6.11
2022-12-05T12:12:58.219Z,6.13
2022-12-05T12:14:16.658Z,5.88
2022-12-05T12:15:50.432Z,6.29
2022-12-05T12:17:07.124Z,6.25
2022-12-05T12:18:22.257Z,6.41
2022-12-05T12:20:13.815Z,6.48
2022-12-05T12:21:38.768Z,6.20
2022-12-05T12:22:54.476Z,6.04
2022-12-05T12:24:06.303Z,6.14
2022-12-05T12:25:40.778Z,5.89
2022-12-05T12:26:57.324Z,5.87
2022-12-05T12:28:23.808Z,5.93
2022-12-05T12:29:38.736Z,6.05
2022-12-05T12:30:47.923Z,6.26
2022-12-05T12:32:05.879Z,6.09
2022-12-05T12:33:05.272Z,6.29
2022-12-05T12:34:10.814Z,6.53
2022-12-05T12:35:26.484Z,6.28
2022-12-05T12:36:36.341Z,6.20
2022-12-05T12:37:45.647Z,6.05
2022-12-05T12:39:15.498Z,6.01
2022-12-05T12:40:20.529Z,5.91
2022-12-05T12:41:26.360Z,6.31
2022-12-05T12:42:35.663Z,6.39
2022-12-05T12:43:56.690Z,6.21
2022-12-05T12:45:14.915Z,6.11
2022-12-05T12:46:49.590Z,6.04
2022-12-05T12:48:04.814Z,6.55
2022-12-05T12:49:22.245Z,6.53
2022-12-05T12:50:23.563Z,6.28
2022-12-05T12:51:20.183Z,6.23
2022-12-05T12:52:28.415Z,6.37
2022-12-05T12:54:02.529Z,5.96
2022-12-05T12:55:25.035Z,6.20
2022-12-05T12:56:28.035Z,6.13
2022-12-05T12:57:46.793Z,5.82
2022-12-05T12:59:03.147Z,6.08
2022-12-05T13:00:05.992Z,5.91
2022-12-05T13:01:12.651Z,5.84
2022-12-05T13:02:22.157Z,5.70
2022-12-05T13:03:31.764Z,6.17
2022-12-05T13:04:34.614Z,6.35
2022-12-05T13:05:44.388Z,6.20
2022-12-05T13:06:55.115Z,6.24
2022-12-05T13:07:58.286Z,6.06
2022-12-05T13:08:59.926Z,6.14
2022-12-05T13:10:02.099Z,6.04
2022-12-05T13:11:01.781Z,5.94
2022-12-05T13:12:11.819Z,5.84
2022-12-05T13:13:13.588Z,5.91
2022-12-05T13:14:14.466Z,5.98
2022-12-05T13:15:15.523Z,5.96
2022-12-05T13:16:21.834Z,6.07
2022-12-05T13:17:22.423Z,5.93
2022-12-05T13:18:22.650Z,6.06
2022-12-05T13:19:37.361Z,5.78
2022-12-05T13:20:36.285Z,5.61
2022-12-05T13:21:33.541Z,5.66
2022-12-05T13:22:30.848Z,5.75
2022-12-05T13:23:31.140Z,6.11
2022-12-05T13:24:28.862Z,6.15
2022-12-05T13:25:32.170Z,6.11
2022-12-05T13:26:33.025Z,6.03
2022-12-05T13:27:29.696Z,6.34
2022-12-05T13:28:33.857Z,6.18
2022-12-05T13:29:35.850Z,5.95
2022-12-05T13:30:33.624Z,5.51
2022-12-05T13:31:43.921Z,6.28
2022-12-05T13:32:41.441Z,6.23
2022-12-05T13:33:46.921Z,6.25
2022-12-05T13:34:49.573Z,6.38
2022-12-05T13:36:04.994Z,5.96
2022-12-05T13:37:30.141Z,5.60
2022-12-05T13:38:57.097Z,5.66
2022-12-05T13:40:15.768Z,5.75
2022-12-05T13:41:31.359Z,5.68
2022-12-05T13:42:32.053Z,5.87
2022-12-05T13:43:29.344Z,5.70
2022-12-05T13:44:33.376Z,5.59
2022-12-05T13:45:30.716Z,5.48
2022-12-05T13:46:33.314Z,5.58
2022-12-05T13:47:37.138Z,5.51
2022-12-05T13:48:40.037Z,5.60
2022-12-05T13:49:44.049Z,5.37
2022-12-05T13:51:03.941Z,5.28